Aviation Digital Data Service (ADDS)

Output produced by METARs form (2130 UTC 20 August 2019)
found at http://www.aviationweather.gov/metar/data/
 
Forecast for: KBHM (BIRMINGHAM , AL, US)
Text: KBHM 201734Z 2018/2118 12008KT P6SM VCTS SCT050CB
Forecast period: 1800 UTC 20 August 2019 to 0600 UTC 21 August 2019
Forecast type: FROM: standard forecast or significant change
Winds: from the ESE (120 degrees) at 9 MPH (8 knots; 4.1 m/s)
Visibility: 6 or more miles 10+ km)
Ceiling: at least 12,000 feet AGL
Clouds: scattered clouds at 5000 feet AGL
Weather: VCTS  (thunderstorm in vicinity)
Text: FM210600 21003KT P6SM BKN250
Forecast period: 0600 to 1800 UTC 21 August 2019
Forecast type: FROM: standard forecast or significant change
Winds: from the SSW (210 degrees) at 3 MPH (3 knots; 1.5 m/s)
Visibility: 6 or more miles 10+ km)
Ceiling: 25000 feet AGL
Clouds: broken clouds at 25000 feet AGL
Weather: no significant weather forecast for this period